createdAt,value
2017-11-13T00:00:08.559Z,981.29
2017-11-13T00:01:08.521Z,981.25
2017-11-13T00:02:08.494Z,981.32
2017-11-13T00:03:08.476Z,981.35
2017-11-13T00:04:08.465Z,981.37
2017-11-13T00:05:08.426Z,981.35
2017-11-13T00:06:08.404Z,981.36
2017-11-13T00:07:08.380Z,981.36
2017-11-13T00:08:08.356Z,981.39
2017-11-13T00:09:08.337Z,981.40
2017-11-13T00:10:08.313Z,981.42
2017-11-13T00:11:08.291Z,981.42
2017-11-13T00:12:08.272Z,981.42
2017-11-13T00:13:08.250Z,981.45
2017-11-13T00:14:08.222Z,981.45
2017-11-13T00:15:08.198Z,981.48
2017-11-13T00:16:08.181Z,981.46
2017-11-13T00:17:08.156Z,981.45
2017-11-13T00:18:08.127Z,981.46
2017-11-13T00:19:08.102Z,981.51
2017-11-13T00:20:08.088Z,981.51
2017-11-13T00:21:08.064Z,981.47
2017-11-13T00:22:08.038Z,981.53
2017-11-13T00:23:08.026Z,981.55
2017-11-13T00:24:08.009Z,981.60
2017-11-13T00:25:07.988Z,981.62
2017-11-13T00:26:07.944Z,981.63
2017-11-13T00:27:07.912Z,981.63
2017-11-13T00:28:07.893Z,981.71
2017-11-13T00:29:07.864Z,981.67
2017-11-13T00:30:07.860Z,981.72
2017-11-13T00:31:07.826Z,981.72
2017-11-13T00:32:07.798Z,981.77
2017-11-13T00:33:07.782Z,981.76
2017-11-13T00:34:07.758Z,981.82
2017-11-13T00:35:07.740Z,981.82
2017-11-13T00:36:07.702Z,981.83
2017-11-13T00:37:07.692Z,981.85
2017-11-13T00:38:07.672Z,981.88
2017-11-13T00:39:07.660Z,981.91
2017-11-13T00:40:07.625Z,981.93
2017-11-13T00:41:07.603Z,981.92
2017-11-13T00:42:07.562Z,981.97
2017-11-13T00:43:07.544Z,981.99
2017-11-13T00:44:07.516Z,981.96
2017-11-13T00:45:07.540Z,981.98
2017-11-13T00:46:07.468Z,981.98
2017-11-13T00:47:07.465Z,981.99
2017-11-13T00:48:07.425Z,982.04
2017-11-13T00:49:07.397Z,982.03
2017-11-13T00:50:07.372Z,982.02
2017-11-13T00:51:07.353Z,982.04
2017-11-13T00:52:07.340Z,981.99
2017-11-13T00:53:07.303Z,982.03
2017-11-13T00:54:07.285Z,982.06
2017-11-13T00:55:07.265Z,982.09
2017-11-13T00:56:07.236Z,982.11
2017-11-13T00:57:07.226Z,982.12
2017-11-13T00:58:07.189Z,982.10
2017-11-13T00:59:07.168Z,982.13
2017-11-13T01:00:07.148Z,982.15
2017-11-13T01:01:07.128Z,982.14
2017-11-13T01:02:07.098Z,982.16
2017-11-13T01:03:07.085Z,982.16
2017-11-13T01:04:07.046Z,982.14
2017-11-13T01:05:07.028Z,982.19
2017-11-13T01:06:07.006Z,982.20
2017-11-13T01:07:06.994Z,982.17
2017-11-13T01:08:06.954Z,982.19
2017-11-13T01:09:06.939Z,982.20
2017-11-13T01:10:06.915Z,982.23
2017-11-13T01:11:06.893Z,982.21
2017-11-13T01:12:06.883Z,982.21
2017-11-13T01:13:06.842Z,982.22
2017-11-13T01:14:06.828Z,982.22
2017-11-13T01:15:06.807Z,982.20
2017-11-13T01:16:06.781Z,982.22
2017-11-13T01:17:06.754Z,982.26
2017-11-13T01:18:06.722Z,982.23
2017-11-13T01:19:06.728Z,982.23
2017-11-13T01:20:06.682Z,982.22
2017-11-13T01:21:06.648Z,982.22
2017-11-13T01:22:06.643Z,982.20
2017-11-13T01:23:06.612Z,982.21
2017-11-13T01:24:06.589Z,982.21
2017-11-13T01:25:06.558Z,982.22
2017-11-13T01:26:06.540Z,982.25
2017-11-13T01:27:06.512Z,982.25
2017-11-13T01:28:06.494Z,982.24
2017-11-13T01:29:06.465Z,982.24
2017-11-13T01:30:06.448Z,982.23
2017-11-13T01:31:06.419Z,982.28
2017-11-13T01:32:06.401Z,982.28
2017-11-13T01:33:06.385Z,982.31
2017-11-13T01:34:06.361Z,982.30
2017-11-13T01:35:06.328Z,982.33
2017-11-13T01:36:06.322Z,982.31
2017-11-13T01:37:06.292Z,982.30
2017-11-13T01:38:06.259Z,982.31
2017-11-13T01:39:06.244Z,982.34
2017-11-13T01:40:06.215Z,982.34
2017-11-13T01:41:06.193Z,982.36
2017-11-13T01:42:06.175Z,982.38
2017-11-13T01:43:06.146Z,982.39
2017-11-13T01:44:06.126Z,982.41
2017-11-13T01:45:06.094Z,982.42
2017-11-13T01:46:06.069Z,982.43
2017-11-13T01:47:06.045Z,982.44
2017-11-13T01:48:06.025Z,982.44
2017-11-13T01:49:06.027Z,982.41
2017-11-13T01:50:05.978Z,982.46
2017-11-13T01:51:05.952Z,982.47
2017-11-13T01:52:05.952Z,982.46
2017-11-13T01:53:05.912Z,982.47
2017-11-13T01:54:05.881Z,982.51
2017-11-13T01:55:05.853Z,982.54
2017-11-13T01:56:05.851Z,982.56
2017-11-13T01:57:05.811Z,982.60
2017-11-13T01:58:05.783Z,982.58
2017-11-13T01:59:05.775Z,982.62
2017-11-13T02:00:05.742Z,982.61
2017-11-13T02:01:05.731Z,982.63
2017-11-13T02:02:05.705Z,982.65
2017-11-13T02:03:05.686Z,982.68
2017-11-13T02:04:05.654Z,982.70
2017-11-13T02:05:05.629Z,982.68
2017-11-13T02:06:05.619Z,982.71
2017-11-13T02:07:05.587Z,982.69
2017-11-13T02:08:05.562Z,982.72
2017-11-13T02:09:05.543Z,982.71
2017-11-13T02:10:05.516Z,982.71
2017-11-13T02:11:05.483Z,982.74
2017-11-13T02:12:05.483Z,982.68
2017-11-13T02:13:05.442Z,982.73
2017-11-13T02:14:05.416Z,982.71
2017-11-13T02:15:05.394Z,982.76
2017-11-13T02:16:05.388Z,982.75
2017-11-13T02:17:05.347Z,982.76
2017-11-13T02:18:05.353Z,982.79
2017-11-13T02:19:05.305Z,982.77
2017-11-13T02:20:05.284Z,982.80
2017-11-13T02:21:05.249Z,982.78
2017-11-13T02:22:05.254Z,982.82
2017-11-13T02:23:05.221Z,982.86
2017-11-13T02:24:05.180Z,982.85
2017-11-13T02:25:05.160Z,982.87
2017-11-13T02:26:05.154Z,982.86
2017-11-13T02:27:05.112Z,982.86
2017-11-13T02:28:05.100Z,982.88
2017-11-13T02:29:05.074Z,982.89
2017-11-13T02:30:05.046Z,982.93
2017-11-13T02:31:05.027Z,982.95
2017-11-13T02:32:05.005Z,982.97
2017-11-13T02:33:04.973Z,982.98
2017-11-13T02:34:04.953Z,982.99
2017-11-13T02:35:04.930Z,983.00
2017-11-13T02:36:04.909Z,983.04
2017-11-13T02:37:04.881Z,983.04
2017-11-13T02:38:04.885Z,983.04
2017-11-13T02:39:04.837Z,983.09
2017-11-13T02:40:04.809Z,983.10
2017-11-13T02:41:04.801Z,983.14
2017-11-13T02:42:04.760Z,983.11
2017-11-13T02:43:04.751Z,983.16
2017-11-13T02:44:04.746Z,983.17
2017-11-13T02:45:04.716Z,983.16
2017-11-13T02:46:04.671Z,983.15
2017-11-13T02:47:04.641Z,983.16
2017-11-13T02:48:04.634Z,983.19
2017-11-13T02:49:04.602Z,983.24
2017-11-13T02:50:04.586Z,983.26
2017-11-13T02:51:04.556Z,983.28
2017-11-13T02:52:04.533Z,983.34
2017-11-13T02:53:04.511Z,983.37
2017-11-13T02:54:04.494Z,983.33
2017-11-13T02:55:04.472Z,983.41
2017-11-13T02:56:04.438Z,983.43
2017-11-13T02:57:04.413Z,983.52
2017-11-13T02:58:04.399Z,983.54
2017-11-13T02:59:04.376Z,983.53
2017-11-13T03:00:04.361Z,983.60
2017-11-13T03:01:04.336Z,983.61
2017-11-13T03:02:04.307Z,983.57
2017-11-13T03:03:04.282Z,983.57
2017-11-13T03:04:04.261Z,983.56
2017-11-13T03:05:04.233Z,983.60
2017-11-13T03:06:04.219Z,983.56
2017-11-13T03:07:04.195Z,983.59
2017-11-13T03:08:04.165Z,983.57
2017-11-13T03:09:04.135Z,983.58
2017-11-13T03:10:04.112Z,983.58
2017-11-13T03:11:04.112Z,983.59
2017-11-13T03:12:04.066Z,983.62
2017-11-13T03:13:04.049Z,983.57
2017-11-13T03:14:04.031Z,983.62
2017-11-13T03:15:03.991Z,983.59
2017-11-13T03:16:03.971Z,983.64
2017-11-13T03:17:03.951Z,983.65
2017-11-13T03:18:03.932Z,983.68
2017-11-13T03:19:04.701Z,983.72
2017-11-13T03:20:03.885Z,983.74
2017-11-13T03:21:03.856Z,983.78
2017-11-13T03:22:03.837Z,983.78
2017-11-13T03:23:03.811Z,983.80
2017-11-13T03:24:03.796Z,983.84
2017-11-13T03:25:03.760Z,983.87
2017-11-13T03:26:03.747Z,983.86
2017-11-13T03:27:03.710Z,983.86
2017-11-13T03:28:03.688Z,983.89
2017-11-13T03:29:03.680Z,983.92
2017-11-13T03:30:03.653Z,983.95
2017-11-13T03:31:03.629Z,983.97
2017-11-13T03:32:03.609Z,984.01
2017-11-13T03:33:03.577Z,983.97
2017-11-13T03:34:03.552Z,983.97
2017-11-13T03:35:03.531Z,984.00
2017-11-13T03:36:03.527Z,983.99
2017-11-13T03:37:03.491Z,984.01
2017-11-13T03:38:03.464Z,984.00
2017-11-13T03:39:03.437Z,983.99
2017-11-13T03:40:03.408Z,984.03
2017-11-13T03:41:03.380Z,984.05
2017-11-13T03:42:03.376Z,984.06
2017-11-13T03:43:03.355Z,984.06
2017-11-13T03:44:03.313Z,984.11
2017-11-13T03:45:03.325Z,984.12
2017-11-13T03:46:03.285Z,984.12
2017-11-13T03:47:03.248Z,984.11
2017-11-13T03:48:03.219Z,984.13
2017-11-13T03:49:03.206Z,984.14
2017-11-13T03:50:03.177Z,984.15
2017-11-13T03:51:03.152Z,984.15
2017-11-13T03:52:03.125Z,984.16
2017-11-13T03:53:03.103Z,984.15
2017-11-13T03:54:03.093Z,984.17
2017-11-13T03:55:03.064Z,984.20
2017-11-13T03:56:03.037Z,984.22
2017-11-13T03:57:03.015Z,984.21
2017-11-13T03:58:02.982Z,984.21
2017-11-13T03:59:02.985Z,984.24
2017-11-13T04:00:02.939Z,984.23
2017-11-13T04:01:02.928Z,984.21
2017-11-13T04:02:02.885Z,984.24
2017-11-13T04:03:02.866Z,984.26
2017-11-13T04:04:02.855Z,984.25
2017-11-13T04:05:02.833Z,984.28
2017-11-13T04:06:02.803Z,984.28
2017-11-13T04:07:02.776Z,984.33
2017-11-13T04:08:02.754Z,984.31
2017-11-13T04:09:02.730Z,984.31
2017-11-13T04:10:02.728Z,984.35
2017-11-13T04:11:02.698Z,984.39
2017-11-13T04:12:02.658Z,984.41
2017-11-13T04:13:02.629Z,984.39
2017-11-13T04:14:02.616Z,984.36
2017-11-13T04:15:02.594Z,984.41
2017-11-13T04:16:02.581Z,984.39
2017-11-13T04:17:02.540Z,984.44
2017-11-13T04:18:02.517Z,984.46
2017-11-13T04:19:02.494Z,984.42
2017-11-13T04:20:02.475Z,984.43
2017-11-13T04:21:02.455Z,984.43
2017-11-13T04:22:02.432Z,984.42
2017-11-13T04:23:02.409Z,984.42
2017-11-13T04:24:02.380Z,984.47
2017-11-13T04:25:02.372Z,984.48
2017-11-13T04:26:02.332Z,984.50
2017-11-13T04:27:02.307Z,984.49
2017-11-13T04:28:02.290Z,984.52
2017-11-13T04:29:02.260Z,984.57
2017-11-13T04:30:02.254Z,984.61
2017-11-13T04:31:02.210Z,984.58
2017-11-13T04:32:02.197Z,984.63
2017-11-13T04:33:02.167Z,984.59
2017-11-13T04:34:02.144Z,984.63
2017-11-13T04:35:02.117Z,984.62
2017-11-13T04:36:02.097Z,984.62
2017-11-13T04:37:02.098Z,984.66
2017-11-13T04:38:02.052Z,984.62
2017-11-13T04:39:02.033Z,984.64
2017-11-13T04:40:02.021Z,984.63
2017-11-13T04:41:01.975Z,984.64
2017-11-13T04:42:01.964Z,984.67
2017-11-13T04:43:01.939Z,984.69
2017-11-13T04:44:01.916Z,984.72
2017-11-13T04:45:01.911Z,984.73
2017-11-13T04:46:01.861Z,984.73
2017-11-13T04:47:01.913Z,984.71
2017-11-13T04:48:01.820Z,984.74
2017-11-13T04:49:01.786Z,984.74
2017-11-13T04:50:01.775Z,984.79
2017-11-13T04:51:01.789Z,984.76
2017-11-13T04:52:01.802Z,984.83
2017-11-13T04:53:01.701Z,984.84
2017-11-13T04:54:01.707Z,984.85
2017-11-13T04:55:01.655Z,984.87
2017-11-13T04:56:01.643Z,984.91
2017-11-13T04:57:01.620Z,984.90
2017-11-13T04:58:01.592Z,984.88
2017-11-13T04:59:01.956Z,984.88
2017-11-13T05:00:01.538Z,984.88
2017-11-13T05:01:01.520Z,984.84
2017-11-13T05:02:01.494Z,984.86
2017-11-13T05:03:01.463Z,984.86
2017-11-13T05:04:01.457Z,984.86
2017-11-13T05:05:01.423Z,984.87
2017-11-13T05:06:01.387Z,984.88
2017-11-13T05:07:01.379Z,984.89
2017-11-13T05:08:01.363Z,984.95
2017-11-13T05:09:01.320Z,984.99
2017-11-13T05:10:01.310Z,985.00
2017-11-13T05:11:01.279Z,985.03
2017-11-13T05:12:01.256Z,985.03
2017-11-13T05:13:01.230Z,985.03
2017-11-13T05:14:01.219Z,985.02
2017-11-13T05:15:01.190Z,985.01
2017-11-13T05:16:01.165Z,985.01
2017-11-13T05:17:01.148Z,985.03
2017-11-13T05:18:01.118Z,985.03
2017-11-13T05:19:01.103Z,985.06
2017-11-13T05:20:01.078Z,985.05
2017-11-13T05:21:01.044Z,985.08
2017-11-13T05:22:01.035Z,985.09
2017-11-13T05:23:00.993Z,985.09
2017-11-13T05:24:00.981Z,985.11
2017-11-13T05:25:00.946Z,985.11
2017-11-13T05:26:00.930Z,985.17
2017-11-13T05:27:00.916Z,985.17
2017-11-13T05:28:00.877Z,985.19
2017-11-13T05:29:00.874Z,985.20
2017-11-13T05:30:00.843Z,985.23
2017-11-13T05:31:00.812Z,985.27
2017-11-13T05:32:00.789Z,985.26
2017-11-13T05:33:00.761Z,985.24
2017-11-13T05:34:00.751Z,985.29
2017-11-13T05:35:00.772Z,985.26
2017-11-13T05:36:00.695Z,985.28
2017-11-13T05:37:00.678Z,985.33
2017-11-13T05:38:00.636Z,985.34
2017-11-13T05:39:00.619Z,985.35
2017-11-13T05:40:00.607Z,985.35
2017-11-13T05:41:00.585Z,985.38
2017-11-13T05:42:00.549Z,985.36
2017-11-13T05:43:00.522Z,985.36
2017-11-13T05:44:00.513Z,985.36
2017-11-13T05:45:00.486Z,985.39
2017-11-13T05:46:00.455Z,985.41
2017-11-13T05:47:00.458Z,985.45
2017-11-13T05:48:00.471Z,985.47
2017-11-13T05:49:00.382Z,985.47
2017-11-13T05:50:00.371Z,985.45
2017-11-13T05:51:00.347Z,985.47
2017-11-13T05:52:00.365Z,985.47
2017-11-13T05:53:00.304Z,985.50
2017-11-13T05:54:00.286Z,985.51
2017-11-13T05:55:00.246Z,985.50
2017-11-13T05:56:00.231Z,985.54
2017-11-13T05:57:00.198Z,985.58
2017-11-13T05:58:00.185Z,985.59
2017-11-13T05:59:00.152Z,985.61
2017-11-13T06:00:00.137Z,985.58
2017-11-13T06:01:00.139Z,985.62
2017-11-13T06:02:00.101Z,985.62
2017-11-13T06:03:00.059Z,985.61
2017-11-13T06:04:00.051Z,985.61
2017-11-13T06:05:00.019Z,985.67
2017-11-13T06:05:59.996Z,985.65
2017-11-13T06:06:59.981Z,985.62
2017-11-13T06:07:59.948Z,985.61
2017-11-13T06:09:00.933Z,985.61
2017-11-13T06:09:59.907Z,985.58
2017-11-13T06:10:59.889Z,985.53
2017-11-13T06:11:59.858Z,985.58
2017-11-13T06:12:59.824Z,985.56
2017-11-13T06:13:59.812Z,985.63
2017-11-13T06:14:59.800Z,985.60
2017-11-13T06:15:59.770Z,985.65
2017-11-13T06:16:59.740Z,985.71
2017-11-13T06:17:59.727Z,985.76
2017-11-13T06:18:59.688Z,985.78
2017-11-13T06:19:59.669Z,985.79
2017-11-13T06:20:59.650Z,985.85
2017-11-13T06:21:59.647Z,985.87
2017-11-13T06:22:59.597Z,985.93
2017-11-13T06:23:59.577Z,985.96
2017-11-13T06:24:59.545Z,986.01
2017-11-13T06:25:59.524Z,986.01
2017-11-13T06:26:59.496Z,986.01
2017-11-13T06:27:59.496Z,986.07
2017-11-13T06:28:59.463Z,986.08
2017-11-13T06:29:59.441Z,986.08
2017-11-13T06:30:59.425Z,986.10
2017-11-13T06:31:59.385Z,986.15
2017-11-13T06:32:59.369Z,986.13
2017-11-13T06:33:59.350Z,986.16
2017-11-13T06:34:59.338Z,986.10
2017-11-13T06:35:59.292Z,986.12
2017-11-13T06:36:59.261Z,986.10
2017-11-13T06:37:59.256Z,986.13
2017-11-13T06:38:59.307Z,986.12
2017-11-13T06:39:59.210Z,986.16
2017-11-13T06:40:59.177Z,986.18
2017-11-13T06:41:59.154Z,986.17
2017-11-13T06:42:59.143Z,986.19
2017-11-13T06:43:59.139Z,986.21
2017-11-13T06:44:59.089Z,986.19
2017-11-13T06:45:59.058Z,986.24
2017-11-13T06:46:59.052Z,986.24
2017-11-13T06:47:59.026Z,986.24
2017-11-13T06:48:59.011Z,986.28
2017-11-13T06:49:58.965Z,986.33
2017-11-13T06:50:58.954Z,986.33
2017-11-13T06:51:58.928Z,986.34
2017-11-13T06:52:58.905Z,986.36
2017-11-13T06:53:58.876Z,986.36
2017-11-13T06:54:58.874Z,986.43
2017-11-13T06:55:58.840Z,986.48
2017-11-13T06:56:58.821Z,986.52
2017-11-13T06:57:58.786Z,986.53
2017-11-13T06:58:58.760Z,986.60
2017-11-13T06:59:58.751Z,986.62
2017-11-13T07:00:58.725Z,986.64
2017-11-13T07:01:58.712Z,986.65
2017-11-13T07:02:58.687Z,986.71
2017-11-13T07:03:58.705Z,986.68
2017-11-13T07:04:58.650Z,986.68
2017-11-13T07:05:58.611Z,986.69
2017-11-13T07:06:58.582Z,986.67
2017-11-13T07:07:58.567Z,986.64
2017-11-13T07:08:58.576Z,986.64
2017-11-13T07:09:58.530Z,986.66
2017-11-13T07:10:58.491Z,986.70
2017-11-13T07:11:58.475Z,986.66
2017-11-13T07:12:58.434Z,986.68
2017-11-13T07:13:58.496Z,986.71
2017-11-13T07:14:58.397Z,986.66
2017-11-13T07:15:58.383Z,986.70
2017-11-13T07:16:58.360Z,986.70
2017-11-13T07:17:58.323Z,986.68
2017-11-13T07:18:58.325Z,986.79
2017-11-13T07:19:58.290Z,986.80
2017-11-13T07:20:58.256Z,986.79
2017-11-13T07:21:58.233Z,986.84
2017-11-13T07:22:58.202Z,986.77
2017-11-13T07:23:58.184Z,986.80
2017-11-13T07:24:58.159Z,986.81
2017-11-13T07:25:58.147Z,986.79
2017-11-13T07:26:58.128Z,986.76
2017-11-13T07:27:58.092Z,986.81
2017-11-13T07:28:58.074Z,986.80
2017-11-13T07:29:58.051Z,986.79
2017-11-13T07:30:58.021Z,986.83
2017-11-13T07:31:58.013Z,986.87
2017-11-13T07:32:58.003Z,986.92
2017-11-13T07:33:57.958Z,986.90
2017-11-13T07:34:57.939Z,986.92
2017-11-13T07:35:57.917Z,986.92
2017-11-13T07:36:57.879Z,986.89
2017-11-13T07:37:57.865Z,986.91
2017-11-13T07:38:57.842Z,986.90
2017-11-13T07:39:57.820Z,986.91
2017-11-13T07:40:57.803Z,986.92
2017-11-13T07:41:57.798Z,986.94
2017-11-13T07:42:57.750Z,987.00
2017-11-13T07:43:57.722Z,987.01
2017-11-13T07:44:57.695Z,987.04
2017-11-13T07:45:57.694Z,987.07
2017-11-13T07:46:57.657Z,987.12
2017-11-13T07:47:57.639Z,987.15
2017-11-13T07:48:57.611Z,987.12
2017-11-13T07:49:57.593Z,987.15
2017-11-13T07:50:57.588Z,987.13
2017-11-13T07:51:57.538Z,987.20
2017-11-13T07:52:57.529Z,987.21
2017-11-13T07:53:57.500Z,987.21
2017-11-13T07:54:57.488Z,987.18
2017-11-13T07:55:57.445Z,987.18
2017-11-13T07:56:57.432Z,987.19
2017-11-13T07:57:57.403Z,987.15
2017-11-13T07:58:57.389Z,987.19
2017-11-13T07:59:57.370Z,987.22
2017-11-13T08:00:57.349Z,987.15
2017-11-13T08:01:57.321Z,987.17
2017-11-13T08:02:57.286Z,987.21
2017-11-13T08:03:57.279Z,987.25
2017-11-13T08:04:57.255Z,987.23
2017-11-13T08:05:57.218Z,987.31
2017-11-13T08:06:57.201Z,987.33
2017-11-13T08:07:57.177Z,987.42
2017-11-13T08:08:57.153Z,987.37
2017-11-13T08:09:57.129Z,987.46
2017-11-13T08:10:57.118Z,987.44
2017-11-13T08:11:57.088Z,987.52
2017-11-13T08:12:57.071Z,987.53
2017-11-13T08:13:57.048Z,987.54
2017-11-13T08:14:57.022Z,987.57
2017-11-13T08:15:56.996Z,987.60
2017-11-13T08:16:56.975Z,987.60
2017-11-13T08:17:56.963Z,987.63
2017-11-13T08:18:56.929Z,987.65
2017-11-13T08:19:56.907Z,987.69
2017-11-13T08:20:56.897Z,987.70
2017-11-13T08:21:56.860Z,987.69
2017-11-13T08:22:56.863Z,987.78
2017-11-13T08:23:56.819Z,987.74
2017-11-13T08:24:56.799Z,987.76
2017-11-13T08:25:56.769Z,987.82
2017-11-13T08:26:56.744Z,987.88
2017-11-13T08:27:56.730Z,987.89
2017-11-13T08:28:56.721Z,987.93
2017-11-13T08:29:56.692Z,987.93
2017-11-13T08:30:56.679Z,987.93
2017-11-13T08:31:56.646Z,987.95
2017-11-13T08:32:56.619Z,987.97
2017-11-13T08:33:56.611Z,987.97
2017-11-13T08:34:56.582Z,988.01
2017-11-13T08:35:56.602Z,988.02
2017-11-13T08:36:56.517Z,987.97
2017-11-13T08:37:56.521Z,988.03
2017-11-13T08:38:56.484Z,988.06
2017-11-13T08:39:56.466Z,988.12
2017-11-13T08:40:56.433Z,988.12
2017-11-13T08:41:56.428Z,988.11
2017-11-13T08:42:56.394Z,988.15
2017-11-13T08:43:56.369Z,988.16
2017-11-13T08:44:56.382Z,988.17
2017-11-13T08:45:56.327Z,988.20
2017-11-13T08:46:56.311Z,988.32
2017-11-13T08:47:56.286Z,988.31
2017-11-13T08:48:56.265Z,988.21
2017-11-13T08:49:56.236Z,988.21
2017-11-13T08:50:56.212Z,988.31
2017-11-13T08:51:56.204Z,988.35
2017-11-13T08:52:56.180Z,988.39
2017-11-13T08:53:56.162Z,988.40
2017-11-13T08:54:56.137Z,988.43
2017-11-13T08:55:56.108Z,988.42
2017-11-13T08:56:56.100Z,988.32
2017-11-13T08:57:56.066Z,988.41
2017-11-13T08:58:56.050Z,988.39
2017-11-13T08:59:56.034Z,988.42
2017-11-13T09:00:56.002Z,988.45
2017-11-13T09:01:56.005Z,988.45
2017-11-13T09:02:55.971Z,988.44
2017-11-13T09:03:55.943Z,988.52
2017-11-13T09:04:55.918Z,988.47
2017-11-13T09:05:55.907Z,988.52
2017-11-13T09:06:55.874Z,988.56
2017-11-13T09:07:55.866Z,988.58
2017-11-13T09:08:55.839Z,988.67
2017-11-13T09:09:55.819Z,988.71
2017-11-13T09:10:55.800Z,988.68
2017-11-13T09:11:55.784Z,988.66
2017-11-13T09:12:55.767Z,988.67
2017-11-13T09:13:55.735Z,988.71
2017-11-13T09:14:55.731Z,988.76
2017-11-13T09:15:55.698Z,988.79
2017-11-13T09:16:55.675Z,988.83
2017-11-13T09:17:55.645Z,988.85
2017-11-13T09:18:55.647Z,988.93
2017-11-13T09:19:55.608Z,988.86
2017-11-13T09:20:55.586Z,988.94
2017-11-13T09:21:55.571Z,988.92
2017-11-13T09:22:55.538Z,989.02
2017-11-13T09:23:55.525Z,989.13
2017-11-13T09:24:55.503Z,989.01
2017-11-13T09:25:55.482Z,989.00
2017-11-13T09:26:55.459Z,989.04
2017-11-13T09:27:55.436Z,989.11
2017-11-13T09:28:55.426Z,989.20
2017-11-13T09:29:55.401Z,989.14
2017-11-13T09:30:55.377Z,989.27
2017-11-13T09:31:55.366Z,989.31
2017-11-13T09:32:55.341Z,989.37
2017-11-13T09:33:55.325Z,989.36
2017-11-13T09:34:55.295Z,989.34
2017-11-13T09:35:55.297Z,989.37
2017-11-13T09:36:55.254Z,989.32
2017-11-13T09:37:55.243Z,989.55
2017-11-13T09:38:55.228Z,989.45
2017-11-13T09:39:55.198Z,989.48
2017-11-13T09:40:55.178Z,989.54
2017-11-13T09:41:55.157Z,989.56
2017-11-13T09:42:55.137Z,989.52
2017-11-13T09:43:55.129Z,989.57
2017-11-13T09:44:55.104Z,989.57
2017-11-13T09:45:55.081Z,989.63
2017-11-13T09:46:55.060Z,989.41
2017-11-13T09:47:55.052Z,989.69
2017-11-13T09:48:55.039Z,989.70
2017-11-13T09:49:55.014Z,989.55
2017-11-13T09:50:55.015Z,989.59
2017-11-13T09:51:54.972Z,989.60
2017-11-13T09:52:54.949Z,989.62
2017-11-13T09:53:54.931Z,989.90
2017-11-13T09:54:54.920Z,989.80
2017-11-13T09:55:54.896Z,989.72
2017-11-13T09:56:54.885Z,989.78
2017-11-13T09:57:54.859Z,989.72
2017-11-13T09:58:54.840Z,989.74
2017-11-13T09:59:54.850Z,989.80
2017-11-13T10:00:54.822Z,989.77
2017-11-13T10:01:54.786Z,989.81
2017-11-13T10:02:57.385Z,989.87
2017-11-13T10:03:54.780Z,989.86
2017-11-13T10:04:54.716Z,989.85
2017-11-13T10:05:54.726Z,989.90
2017-11-13T10:06:54.695Z,989.90
2017-11-13T10:07:54.671Z,989.88
2017-11-13T10:08:54.641Z,989.89
2017-11-13T10:09:54.624Z,989.95
2017-11-13T10:10:54.625Z,989.95
2017-11-13T10:11:54.587Z,989.92
2017-11-13T10:12:54.565Z,989.93
2017-11-13T10:13:54.542Z,989.91
2017-11-13T10:14:54.562Z,989.88
2017-11-13T10:15:54.506Z,989.88
2017-11-13T10:16:54.482Z,989.89
2017-11-13T10:17:54.492Z,989.88
2017-11-13T10:18:54.465Z,989.88
2017-11-13T10:19:54.433Z,989.84
2017-11-13T10:20:54.394Z,989.86
2017-11-13T10:21:54.482Z,989.92
2017-11-13T10:22:54.379Z,989.94
2017-11-13T10:23:54.349Z,989.90
2017-11-13T10:24:54.324Z,989.95
2017-11-13T10:25:54.332Z,989.98
2017-11-13T10:26:54.497Z,989.97
2017-11-13T10:27:54.272Z,989.93
2017-11-13T10:28:54.241Z,989.96
2017-11-13T10:29:54.296Z,989.99
2017-11-13T10:30:54.219Z,989.99
2017-11-13T10:31:54.174Z,990.19
2017-11-13T10:32:54.220Z,990.00
2017-11-13T10:33:54.151Z,989.93
2017-11-13T10:34:54.199Z,989.92
2017-11-13T10:35:54.096Z,989.93
2017-11-13T10:36:54.085Z,989.99
2017-11-13T10:37:54.071Z,989.96
2017-11-13T10:38:54.039Z,990.28
2017-11-13T10:39:54.034Z,989.98
2017-11-13T10:40:53.998Z,989.96
2017-11-13T10:41:54.013Z,990.12
2017-11-13T10:42:53.961Z,990.06
2017-11-13T10:43:53.937Z,989.92
2017-11-13T10:44:53.929Z,989.98
2017-11-13T10:45:53.901Z,989.91
2017-11-13T10:46:53.877Z,989.95
2017-11-13T10:47:53.863Z,989.87
2017-11-13T10:48:53.869Z,990.33
2017-11-13T10:49:53.813Z,990.47
2017-11-13T10:50:53.799Z,990.52
2017-11-13T10:51:53.783Z,990.36
2017-11-13T10:52:53.769Z,990.08
2017-11-13T10:53:53.734Z,989.92
2017-11-13T10:54:53.719Z,990.03
2017-11-13T10:55:53.707Z,990.56
2017-11-13T10:56:53.684Z,990.09
2017-11-13T10:57:53.681Z,989.91
2017-11-13T10:58:53.648Z,989.97
2017-11-13T10:59:53.665Z,990.03
2017-11-13T11:00:53.623Z,990.75
2017-11-13T11:01:53.587Z,990.03
2017-11-13T11:02:53.576Z,990.02
2017-11-13T11:03:53.580Z,990.28
2017-11-13T11:04:53.548Z,990.00
2017-11-13T11:05:53.510Z,990.17
2017-11-13T11:06:53.512Z,990.67
2017-11-13T11:07:53.481Z,990.31
2017-11-13T11:08:53.483Z,990.52
2017-11-13T11:09:53.444Z,990.70
2017-11-13T11:10:53.436Z,990.69
2017-11-13T11:11:53.417Z,990.75
2017-11-13T11:12:53.392Z,990.52
2017-11-13T11:13:53.368Z,990.02
2017-11-13T11:14:53.358Z,990.30
2017-11-13T11:15:53.358Z,990.13
2017-11-13T11:16:53.325Z,990.87
2017-11-13T11:17:53.430Z,990.41
2017-11-13T11:18:53.287Z,990.27
2017-11-13T11:19:53.281Z,990.25
2017-11-13T11:20:53.282Z,990.18
2017-11-13T11:21:53.258Z,990.31
2017-11-13T11:22:53.297Z,990.53
2017-11-13T11:23:53.217Z,990.55
2017-11-13T11:24:53.207Z,990.29
2017-11-13T11:25:53.186Z,990.70
2017-11-13T11:26:53.173Z,990.87
2017-11-13T11:27:53.150Z,990.99
2017-11-13T11:28:53.134Z,990.78
2017-11-13T11:29:53.144Z,990.75
2017-11-13T11:30:53.110Z,990.17
2017-11-13T11:31:53.118Z,990.16
2017-11-13T11:32:53.084Z,990.25
2017-11-13T11:33:53.102Z,990.28
2017-11-13T11:34:53.043Z,990.20
2017-11-13T11:35:53.059Z,991.01
2017-11-13T11:36:53.031Z,990.90
2017-11-13T11:37:53.000Z,990.90
2017-11-13T11:38:53.002Z,990.97
2017-11-13T11:39:52.992Z,990.27
2017-11-13T11:40:52.972Z,990.21
2017-11-13T11:41:52.963Z,990.21
2017-11-13T11:42:52.949Z,990.26
2017-11-13T11:43:52.941Z,990.27
2017-11-13T11:44:52.918Z,990.37
2017-11-13T11:45:52.909Z,991.08
2017-11-13T11:46:52.883Z,990.26
2017-11-13T11:47:52.874Z,990.41
2017-11-13T11:48:52.864Z,990.40
2017-11-13T11:49:52.831Z,990.47
2017-11-13T11:50:52.839Z,990.70
2017-11-13T11:51:52.811Z,990.61
2017-11-13T11:52:52.798Z,991.11
2017-11-13T11:53:52.786Z,990.40
2017-11-13T11:54:52.763Z,990.43
2017-11-13T11:55:52.747Z,990.55
2017-11-13T11:56:52.728Z,990.51
2017-11-13T11:57:52.714Z,990.43
2017-11-13T11:58:52.695Z,990.44
2017-11-13T11:59:52.684Z,990.40
2017-11-13T12:00:52.672Z,990.42
2017-11-13T12:01:52.644Z,990.41
2017-11-13T12:02:52.633Z,990.38
2017-11-13T12:03:52.630Z,990.42
2017-11-13T12:04:52.620Z,990.41
2017-11-13T12:05:52.582Z,990.48
2017-11-13T12:06:52.580Z,990.49
2017-11-13T12:07:52.554Z,990.47
2017-11-13T12:08:52.541Z,990.52
2017-11-13T12:09:52.517Z,990.49
2017-11-13T12:10:52.501Z,990.54
2017-11-13T12:11:52.472Z,990.51
2017-11-13T12:12:52.471Z,990.47
2017-11-13T12:13:52.434Z,990.50
2017-11-13T12:14:52.443Z,990.49
2017-11-13T12:15:52.478Z,990.51
2017-11-13T12:16:52.391Z,990.59
2017-11-13T12:17:52.363Z,990.62
2017-11-13T12:18:52.349Z,991.15
2017-11-13T12:19:52.348Z,990.59
2017-11-13T12:20:52.325Z,990.58
2017-11-13T12:21:52.292Z,990.54
2017-11-13T12:22:52.281Z,990.60
2017-11-13T12:23:52.255Z,990.63
2017-11-13T12:24:52.240Z,990.69
2017-11-13T12:25:52.210Z,990.80
2017-11-13T12:26:52.230Z,990.79
2017-11-13T12:27:52.242Z,990.80